Hammondsville, Ohio
Current Conditions -  °F | °C
As of 5:47 PM on Tuesday 27 Jan 2015 (Local Time) from KBVI Reporting Station
Light Snow Light Snow  
Wind Chill: -12°   Ceiling: 1800
Heat Index: -7°   Visibility: 7mi
Dew Point: -10°   Wind: 7mph
Humidity: 80%   Direction: 330°NNW
Pressure: 30.04"   Gusts: 16mph
Location:  40.56°N, 80.71°W
Report Text: KBVI 272247Z 33006G14KT 7SM -SN BKN018 BKN032 OVC065 M07/M10 A3004
Loading
Personal Weather Stations






























Interactive Weather Map New forecast layout! Learn more

10-Day Weather Forecast

Advertisements
Track Severe Weather on mobile